Time;durP1;ratioP1;P1;durP2;ratioP2;P2;SDS_P1;SDS_P2;PMS_P1;PMS_P2;Temp;Humidity;BMP_temperature;BMP_pressure;BME280_temperature;BME280_humidity;BME280_pressure;Samples;Min_cycle;Max_cycle;Signal;HPM_P1;HPM_P2
2022/12/25 00:00:40;;;;;;;15.02;11.52;;;;;;;;;;4963954;28;20038;-76
2022/12/25 00:03:06;;;;;;;13.52;12.13;;;;;;;;;;4967404;28;20138;-76
2022/12/25 00:05:32;;;;;;;15.02;11.25;;;;;;;;;;4966615;28;20073;-75
2022/12/25 00:07:58;;;;;;;16.15;10.82;;;;;;;;;;4966654;28;20030;-76
2022/12/25 00:10:24;;;;;;;14.20;10.63;;;;;;;;;;4964907;28;20038;-75
2022/12/25 00:12:49;;;;;;;17.42;10.82;;;;;;;;;;4964315;28;20884;-76
2022/12/25 00:15:15;;;;;;;11.90;10.63;;;;;;;;;;4981339;28;20074;-76
2022/12/25 00:17:40;;;;;;;11.73;10.15;;;;;;;;;;4963102;28;20050;-76
2022/12/25 00:20:07;;;;;;;13.10;10.10;;;;;;;;;;4961371;28;20125;-76
2022/12/25 00:22:32;;;;;;;12.30;11.20;;;;;;;;;;4965392;28;20038;-76
2022/12/25 00:24:58;;;;;;;13.85;10.55;;;;;;;;;;4961371;28;20078;-76
2022/12/25 00:27:24;;;;;;;10.25;9.25;;;;;;;;;;4962719;28;20061;-76
2022/12/25 00:29:49;;;;;;;11.23;9.18;;;;;;;;;;4964656;28;20038;-75
2022/12/25 00:32:15;;;;;;;9.82;8.60;;;;;;;;;;4972154;28;20030;-76
2022/12/25 00:34:40;;;;;;;7.82;7.22;;;;;;;;;;4969056;28;20049;-76
2022/12/25 00:37:06;;;;;;;9.75;8.85;;;;;;;;;;4959205;28;20134;-76
2022/12/25 00:39:31;;;;;;;9.35;8.48;;;;;;;;;;4965549;28;20042;-76
2022/12/25 00:44:40;;;;;;;11.15;9.50;;;;;;;;;;4967230;28;20117;-76
2022/12/25 00:47:06;;;;;;;11.40;8.80;;;;;;;;;;4959174;28;20129;-76
2022/12/25 00:49:32;;;;;;;11.88;9.90;;;;;;;;;;4965454;28;20153;-76
2022/12/25 00:51:57;;;;;;;12.40;9.57;;;;;;;;;;4968294;28;20050;-76
2022/12/25 00:54:23;;;;;;;17.58;9.85;;;;;;;;;;4959334;28;20117;-76
2022/12/25 00:56:49;;;;;;;12.23;9.57;;;;;;;;;;4959304;28;20027;-76
2022/12/25 00:59:15;;;;;;;9.65;8.60;;;;;;;;;;4968267;28;20119;-76
2022/12/25 01:01:40;;;;;;;10.32;9.30;;;;;;;;;;4966234;28;20546;-76
2022/12/25 01:04:06;;;;;;;9.10;8.13;;;;;;;;;;4957420;28;20609;-77
2022/12/25 01:06:32;;;;;;;10.27;8.43;;;;;;;;;;4964229;28;20034;-76
2022/12/25 01:11:43;;;;;;;8.65;7.88;;;;;;;;;;4958311;28;20065;-76
2022/12/25 01:14:09;;;;;;;9.23;8.23;;;;;;;;;;4960851;28;20542;-76
2022/12/25 01:16:35;;;;;;;9.02;7.93;;;;;;;;;;4962590;28;20577;-76
2022/12/25 01:19:01;;;;;;;9.00;8.25;;;;;;;;;;4957892;28;20051;-76
2022/12/25 01:21:27;;;;;;;9.43;8.32;;;;;;;;;;4962139;28;20035;-76
2022/12/25 01:23:53;;;;;;;9.38;8.48;;;;;;;;;;4965903;28;20503;-76
2022/12/25 01:26:21;;;;;;;9.63;8.70;;;;;;;;;;4963926;28;20034;-77
2022/12/25 01:28:47;;;;;;;12.18;9.00;;;;;;;;;;4963339;28;20101;-76
2022/12/25 01:31:16;;;;;;;10.27;9.18;;;;;;;;;;4963658;28;20049;-76
2022/12/25 01:33:42;;;;;;;9.85;8.85;;;;;;;;;;4962202;28;20031;-76
2022/12/25 01:36:18;;;;;;;12.20;9.63;;;;;;;;;;4963004;28;20042;-76
2022/12/25 01:38:44;;;;;;;10.27;9.00;;;;;;;;;;4959966;28;20050;-76
2022/12/25 01:41:12;;;;;;;11.02;9.65;;;;;;;;;;4966435;28;20388;-76
2022/12/25 01:43:56;;;;;;;10.73;9.63;;;;;;;;;;4966669;28;20034;-77
2022/12/25 01:46:22;;;;;;;12.52;9.63;;;;;;;;;;4957814;28;20123;-76
2022/12/25 01:48:48;;;;;;;16.42;10.15;;;;;;;;;;4963261;28;20125;-76
2022/12/25 01:51:25;;;;;;;14.45;9.80;;;;;;;;;;4960293;28;20042;-76
2022/12/25 01:53:52;;;;;;;11.07;9.85;;;;;;;;;;4943439;28;20504;-76
2022/12/25 01:56:18;;;;;;;10.48;9.20;;;;;;;;;;4959676;28;20047;-76
2022/12/25 01:58:44;;;;;;;9.07;8.13;;;;;;;;;;4959629;28;20035;-77
2022/12/25 02:01:10;;;;;;;10.27;9.15;;;;;;;;;;4966007;28;20503;-77
2022/12/25 02:03:35;;;;;;;9.10;8.27;;;;;;;;;;4971011;28;20082;-76
2022/12/25 02:06:03;;;;;;;8.48;7.78;;;;;;;;;;4957921;28;20034;-76
2022/12/25 02:08:29;;;;;;;9.88;8.25;;;;;;;;;;4967339;28;20054;-76
2022/12/25 02:10:54;;;;;;;9.07;8.18;;;;;;;;;;4970776;28;20065;-75
2022/12/25 02:13:21;;;;;;;11.57;7.55;;;;;;;;;;4970790;28;21119;-76
2022/12/25 02:16:09;;;;;;;10.07;7.90;;;;;;;;;;4961919;28;20446;-75
2022/12/25 02:18:46;;;;;;;7.95;7.35;;;;;;;;;;4968126;28;20030;-74
2022/12/25 02:21:37;;;;;;;13.27;7.05;;;;;;;;;;4965849;28;20054;-75
2022/12/25 02:24:11;;;;;;;8.20;7.50;;;;;;;;;;4961875;28;20145;-74
2022/12/25 02:26:37;;;;;;;8.93;7.47;;;;;;;;;;4970166;28;20035;-75
2022/12/25 02:29:11;;;;;;;9.02;7.95;;;;;;;;;;4963102;28;20039;-75
2022/12/25 02:31:44;;;;;;;9.30;8.40;;;;;;;;;;4962690;28;20038;-75
2022/12/25 02:34:23;;;;;;;12.85;8.73;;;;;;;;;;4969921;28;20041;-75
2022/12/25 02:36:52;;;;;;;9.45;8.45;;;;;;;;;;4965499;28;20089;-74
2022/12/25 02:42:16;;;;;;;13.15;8.55;;;;;;;;;;4967385;28;20443;-74
2022/12/25 03:06:41;;;;;;;7.38;6.78;;;;;;;;;;4969580;28;20118;-75
2022/12/25 03:07:17;;;;;;;6.72;6.22;;;;;;;;;;4932953;28;20035;-70
2022/12/25 03:13:02;;;;;;;6.53;6.10;;;;;;;;;;4948302;28;20466;-71
2022/12/25 03:18:16;;;;;;;7.10;6.40;;;;;;;;;;4942320;29;20118;-71
2022/12/25 03:29:01;;;;;;;8.35;6.72;;;;;;;;;;4942315;28;20035;-70
2022/12/25 03:31:43;;;;;;;7.65;6.93;;;;;;;;;;4946716;28;20038;-70
2022/12/25 03:44:00;;;;;;;8.05;7.38;;;;;;;;;;4938875;28;20042;-71
2022/12/25 04:38:30;;;;;;;7.85;7.00;;;;;;;;;;4934236;28;20478;-70
2022/12/25 04:40:56;;;;;;;7.20;6.70;;;;;;;;;;4946067;28;20038;-70
2022/12/25 04:43:23;;;;;;;8.02;7.28;;;;;;;;;;4938378;28;20463;-70
2022/12/25 04:45:53;;;;;;;6.53;6.13;;;;;;;;;;4936789;28;20070;-70
2022/12/25 04:48:19;;;;;;;7.65;7.05;;;;;;;;;;4937431;28;20446;-70
2022/12/25 04:50:44;;;;;;;7.82;7.28;;;;;;;;;;4933087;29;20541;-71
2022/12/25 04:53:10;;;;;;;7.47;6.78;;;;;;;;;;4937169;29;20497;-70
2022/12/25 04:55:35;;;;;;;6.47;6.13;;;;;;;;;;4934607;28;20097;-70
2022/12/25 04:58:01;;;;;;;7.68;6.88;;;;;;;;;;4938204;28;20134;-70
2022/12/25 05:00:27;;;;;;;7.85;7.15;;;;;;;;;;4932381;28;20089;-70
2022/12/25 05:02:52;;;;;;;7.00;6.40;;;;;;;;;;4928772;29;21736;-70
2022/12/25 05:05:18;;;;;;;8.20;7.50;;;;;;;;;;4936503;29;20070;-70
2022/12/25 05:07:43;;;;;;;7.78;7.05;;;;;;;;;;4937614;28;20046;-70
2022/12/25 05:10:09;;;;;;;8.10;7.30;;;;;;;;;;4940419;29;20053;-70
2022/12/25 05:12:35;;;;;;;5.88;5.57;;;;;;;;;;4936784;29;20050;-70
2022/12/25 05:15:00;;;;;;;7.32;6.82;;;;;;;;;;4939416;28;20047;-70
2022/12/25 05:17:26;;;;;;;7.45;6.85;;;;;;;;;;4940203;28;20079;-70
2022/12/25 05:19:51;;;;;;;6.78;6.28;;;;;;;;;;4936538;28;20138;-70
2022/12/25 05:22:17;;;;;;;6.97;6.57;;;;;;;;;;4935300;28;20414;-70
2022/12/25 05:24:42;;;;;;;8.30;7.50;;;;;;;;;;4933500;29;20410;-70
2022/12/25 05:27:08;;;;;;;9.48;8.35;;;;;;;;;;4936657;28;20163;-70
2022/12/25 05:29:34;;;;;;;22.75;18.13;;;;;;;;;;4935759;28;20031;-70
2022/12/25 05:32:00;;;;;;;6.72;6.32;;;;;;;;;;4936225;28;20043;-70
2022/12/25 05:34:26;;;;;;;8.02;7.40;;;;;;;;;;4934731;29;20036;-70
2022/12/25 05:36:52;;;;;;;27.33;24.75;;;;;;;;;;4934730;28;20042;-71
2022/12/25 05:39:17;;;;;;;8.20;7.70;;;;;;;;;;4932261;29;20078;-70
2022/12/25 05:41:43;;;;;;;8.45;7.68;;;;;;;;;;4934918;29;20078;-70
2022/12/25 05:44:09;;;;;;;7.82;7.22;;;;;;;;;;4930673;28;20043;-70
2022/12/25 05:46:34;;;;;;;7.97;7.20;;;;;;;;;;4933030;28;20051;-70
2022/12/25 05:49:00;;;;;;;7.97;7.38;;;;;;;;;;4938065;29;20074;-70
2022/12/25 05:51:25;;;;;;;7.88;7.18;;;;;;;;;;4938686;28;20067;-70
2022/12/25 05:53:51;;;;;;;8.70;7.97;;;;;;;;;;4933906;29;20131;-70
2022/12/25 05:56:16;;;;;;;8.02;7.53;;;;;;;;;;4937276;29;20059;-70
2022/12/25 05:58:42;;;;;;;7.97;7.45;;;;;;;;;;4941061;28;20043;-71
2022/12/25 06:01:19;;;;;;;8.60;7.95;;;;;;;;;;4939964;28;20070;-70
2022/12/25 06:03:45;;;;;;;7.82;7.32;;;;;;;;;;4934845;29;20043;-71
2022/12/25 06:06:11;;;;;;;8.18;7.47;;;;;;;;;;4936195;28;20056;-70
2022/12/25 06:08:36;;;;;;;11.98;10.90;;;;;;;;;;4938024;28;20143;-69
2022/12/25 06:11:04;;;;;;;11.32;9.75;;;;;;;;;;4936147;28;20136;-70
2022/12/25 06:13:30;;;;;;;9.45;8.65;;;;;;;;;;4936937;29;20412;-71
2022/12/25 06:15:55;;;;;;;10.38;8.43;;;;;;;;;;4952898;28;20051;-69
2022/12/25 06:18:21;;;;;;;8.50;7.80;;;;;;;;;;4938100;28;20046;-70
2022/12/25 06:20:47;;;;;;;9.48;8.77;;;;;;;;;;4940054;29;20502;-70
2022/12/25 06:23:12;;;;;;;9.23;8.43;;;;;;;;;;4944010;28;20403;-70
2022/12/25 06:25:39;;;;;;;9.57;8.50;;;;;;;;;;4934480;29;20403;-70
2022/12/25 06:28:05;;;;;;;9.75;8.80;;;;;;;;;;4939000;29;20251;-70
2022/12/25 06:30:31;;;;;;;8.98;8.30;;;;;;;;;;4936286;28;20043;-69
2022/12/25 06:32:58;;;;;;;9.32;8.57;;;;;;;;;;4939309;29;20034;-70
2022/12/25 06:35:24;;;;;;;9.27;8.40;;;;;;;;;;4938420;28;20043;-69
2022/12/25 06:37:50;;;;;;;9.43;8.48;;;;;;;;;;4934764;28;20045;-70
2022/12/25 06:40:15;;;;;;;9.25;8.55;;;;;;;;;;4939943;28;20122;-70
2022/12/25 06:42:41;;;;;;;14.70;11.20;;;;;;;;;;4941910;28;20098;-70
2022/12/25 06:45:07;;;;;;;12.70;11.23;;;;;;;;;;4934699;28;20630;-70
2022/12/25 06:47:32;;;;;;;11.70;10.50;;;;;;;;;;4937663;29;20126;-70
2022/12/25 06:49:58;;;;;;;12.02;11.00;;;;;;;;;;4937927;29;20122;-70
2022/12/25 06:52:23;;;;;;;10.73;9.75;;;;;;;;;;4940595;28;20039;-70
2022/12/25 06:54:49;;;;;;;13.93;8.90;;;;;;;;;;4939520;28;20375;-69
2022/12/25 06:57:14;;;;;;;15.25;12.05;;;;;;;;;;4935607;28;20034;-69
2022/12/25 06:59:40;;;;;;;10.68;9.68;;;;;;;;;;4938164;28;20042;-73
2022/12/25 07:02:18;;;;;;;10.95;9.90;;;;;;;;;;4938609;28;20516;-73
2022/12/25 07:04:44;;;;;;;10.77;9.77;;;;;;;;;;4937900;29;20039;-73
2022/12/25 07:07:10;;;;;;;9.60;8.77;;;;;;;;;;4938496;28;20032;-73
2022/12/25 07:09:37;;;;;;;13.02;9.35;;;;;;;;;;4937055;28;20039;-73
2022/12/25 07:12:04;;;;;;;13.05;11.15;;;;;;;;;;4939029;29;20058;-72
2022/12/25 07:14:29;;;;;;;11.82;10.52;;;;;;;;;;4937335;28;20982;-72
2022/12/25 07:16:55;;;;;;;17.42;15.63;;;;;;;;;;4935769;29;20048;-72
2022/12/25 07:19:20;;;;;;;22.50;18.23;;;;;;;;;;4936788;28;20039;-72
2022/12/25 07:21:46;;;;;;;12.48;10.18;;;;;;;;;;4936898;28;20049;-72
2022/12/25 07:24:18;;;;;;;17.83;12.60;;;;;;;;;;4953577;28;20045;-72
2022/12/25 07:26:43;;;;;;;16.45;13.10;;;;;;;;;;4935191;28;20053;-72
2022/12/25 07:29:09;;;;;;;15.50;11.02;;;;;;;;;;4936143;28;20478;-72
2022/12/25 07:31:34;;;;;;;13.13;11.68;;;;;;;;;;4940054;29;20122;-72
2022/12/25 07:34:00;;;;;;;16.80;12.77;;;;;;;;;;4934686;29;20042;-71
2022/12/25 07:36:26;;;;;;;16.92;12.15;;;;;;;;;;4936722;28;20042;-71
2022/12/25 07:38:52;;;;;;;15.20;12.05;;;;;;;;;;4934022;29;20407;-71
2022/12/25 07:41:18;;;;;;;12.07;10.82;;;;;;;;;;4937030;28;20499;-72
2022/12/25 07:43:43;;;;;;;14.32;11.95;;;;;;;;;;4940784;29;20499;-72
2022/12/25 07:46:09;;;;;;;12.68;11.10;;;;;;;;;;4936500;28;20035;-72
2022/12/25 07:48:35;;;;;;;12.07;10.70;;;;;;;;;;4935276;28;20466;-72
2022/12/25 07:51:04;;;;;;;13.35;11.43;;;;;;;;;;4944282;28;20035;-74
2022/12/25 07:53:30;;;;;;;12.82;11.52;;;;;;;;;;4934102;29;20158;-72
2022/12/25 07:56:01;;;;;;;12.02;10.77;;;;;;;;;;4938758;28;20410;-72
2022/12/25 07:58:28;;;;;;;12.18;10.85;;;;;;;;;;4953270;28;20155;-73
2022/12/25 08:00:53;;;;;;;11.68;10.10;;;;;;;;;;4937916;29;20759;-72
2022/12/25 08:03:19;;;;;;;8.95;8.15;;;;;;;;;;4937488;29;20067;-72
2022/12/25 08:05:45;;;;;;;14.10;11.50;;;;;;;;;;4937942;28;20077;-73
2022/12/25 08:08:11;;;;;;;12.50;10.45;;;;;;;;;;4933365;28;20047;-73
2022/12/25 08:10:37;;;;;;;9.20;8.30;;;;;;;;;;4937508;28;20084;-72
2022/12/25 08:13:02;;;;;;;7.93;7.32;;;;;;;;;;4938848;28;20063;-73
2022/12/25 08:15:29;;;;;;;9.30;8.15;;;;;;;;;;4937788;29;20500;-73
2022/12/25 08:17:55;;;;;;;8.77;7.95;;;;;;;;;;4932742;28;20045;-73
2022/12/25 08:20:20;;;;;;;8.75;7.25;;;;;;;;;;4936021;29;20139;-73
2022/12/25 08:22:46;;;;;;;10.98;8.38;;;;;;;;;;4937450;28;20050;-73
2022/12/25 08:25:12;;;;;;;9.43;8.40;;;;;;;;;;4934228;29;20033;-73
2022/12/25 08:27:37;;;;;;;10.23;9.20;;;;;;;;;;4936212;29;20061;-73
2022/12/25 08:30:04;;;;;;;12.15;10.63;;;;;;;;;;4936435;29;20039;-73
2022/12/25 08:32:32;;;;;;;10.07;9.18;;;;;;;;;;4935216;29;20533;-73
2022/12/25 08:34:58;;;;;;;10.98;10.00;;;;;;;;;;4935079;29;20031;-73
2022/12/25 08:37:24;;;;;;;10.23;9.20;;;;;;;;;;4933824;29;20035;-72
2022/12/25 08:39:49;;;;;;;21.13;14.20;;;;;;;;;;4936540;28;20031;-73
2022/12/25 08:42:15;;;;;;;13.05;11.70;;;;;;;;;;4934190;28;20039;-73
2022/12/25 08:44:41;;;;;;;12.88;11.57;;;;;;;;;;4935389;28;20027;-73
2022/12/25 08:47:06;;;;;;;13.32;11.32;;;;;;;;;;4941846;28;20517;-73
2022/12/25 08:49:32;;;;;;;12.25;11.05;;;;;;;;;;4904483;28;20233;-72
2022/12/25 08:51:58;;;;;;;12.32;11.02;;;;;;;;;;4948433;29;20035;-72
2022/12/25 08:54:24;;;;;;;11.02;10.02;;;;;;;;;;4933890;29;20510;-73
2022/12/25 08:56:49;;;;;;;15.10;10.85;;;;;;;;;;4936832;28;20047;-72
2022/12/25 08:59:15;;;;;;;14.60;11.25;;;;;;;;;;4937989;28;20521;-74
2022/12/25 09:01:40;;;;;;;13.20;10.15;;;;;;;;;;4979279;23;20441;-77
2022/12/25 09:04:06;;;;;;;11.57;10.43;;;;;;;;;;4987420;28;20125;-77
2022/12/25 09:06:32;;;;;;;10.52;9.52;;;;;;;;;;4998433;28;20056;-76
2022/12/25 09:08:57;;;;;;;12.10;10.02;;;;;;;;;;4983257;28;20030;-77
2022/12/25 09:11:23;;;;;;;10.63;9.70;;;;;;;;;;4975182;28;20056;-77
2022/12/25 09:13:49;;;;;;;11.40;10.30;;;;;;;;;;4969026;28;20178;-77
2022/12/25 09:16:19;;;;;;;10.75;9.65;;;;;;;;;;4970904;28;20133;-78
2022/12/25 09:18:44;;;;;;;11.07;10.10;;;;;;;;;;4972026;28;20034;-76
2022/12/25 09:21:12;;;;;;;11.07;10.07;;;;;;;;;;4981270;28;20050;-77
2022/12/25 09:23:38;;;;;;;11.15;10.13;;;;;;;;;;4969859;28;20046;-77
2022/12/25 09:26:05;;;;;;;8.65;8.00;;;;;;;;;;4954524;28;20042;-77
2022/12/25 09:28:31;;;;;;;9.65;8.85;;;;;;;;;;4962932;28;20035;-78
2022/12/25 09:30:57;;;;;;;9.63;8.73;;;;;;;;;;4968604;28;20050;-77
2022/12/25 09:33:23;;;;;;;9.85;8.85;;;;;;;;;;4973147;28;20745;-76
2022/12/25 09:36:01;;;;;;;9.32;8.52;;;;;;;;;;4967112;28;20102;-77
2022/12/25 09:38:27;;;;;;;11.85;10.63;;;;;;;;;;4967107;28;20093;-76
2022/12/25 09:41:03;;;;;;;12.95;10.20;;;;;;;;;;4972833;28;21435;-77
2022/12/25 09:43:32;;;;;;;8.85;8.13;;;;;;;;;;4970730;28;20046;-77
2022/12/25 09:46:01;;;;;;;8.10;7.40;;;;;;;;;;4965192;28;20064;-77
2022/12/25 09:48:31;;;;;;;9.70;8.90;;;;;;;;;;4972876;28;20121;-77
2022/12/25 09:51:07;;;;;;;7.60;7.10;;;;;;;;;;4974714;28;20050;-77
2022/12/25 09:53:38;;;;;;;8.60;7.90;;;;;;;;;;4966688;28;20126;-76
2022/12/25 09:56:12;;;;;;;8.63;7.93;;;;;;;;;;4968693;28;20070;-77
2022/12/25 09:58:38;;;;;;;8.35;7.72;;;;;;;;;;4968125;28;20113;-77
2022/12/25 10:01:13;;;;;;;9.15;8.43;;;;;;;;;;4970667;28;20153;-76
2022/12/25 10:03:56;;;;;;;9.18;8.43;;;;;;;;;;4968789;28;20039;-77
2022/12/25 10:06:34;;;;;;;8.75;8.05;;;;;;;;;;4972383;28;20038;-76
2022/12/25 10:09:05;;;;;;;10.25;8.50;;;;;;;;;;4963612;28;20157;-76
2022/12/25 10:11:49;;;;;;;9.48;8.63;;;;;;;;;;4966746;28;20041;-77
2022/12/25 10:14:36;;;;;;;8.55;7.95;;;;;;;;;;4975828;28;20034;-76
2022/12/25 10:17:29;;;;;;;7.90;7.30;;;;;;;;;;4958711;28;20042;-77
2022/12/25 10:20:14;;;;;;;8.40;7.70;;;;;;;;;;4971601;28;20033;-77
2022/12/25 10:22:44;;;;;;;8.48;7.78;;;;;;;;;;4969975;28;20055;-76
2022/12/25 10:25:16;;;;;;;8.82;8.00;;;;;;;;;;4976652;28;20378;-77
2022/12/25 10:27:43;;;;;;;9.45;8.63;;;;;;;;;;4969569;28;20039;-77
2022/12/25 10:30:19;;;;;;;8.80;8.00;;;;;;;;;;4977306;28;20076;-77
2022/12/25 10:32:46;;;;;;;8.43;7.80;;;;;;;;;;4966799;28;20402;-76
2022/12/25 10:35:14;;;;;;;8.55;7.93;;;;;;;;;;4974293;28;20080;-76
2022/12/25 10:37:41;;;;;;;8.48;7.78;;;;;;;;;;4969331;28;20070;-77
2022/12/25 10:40:25;;;;;;;8.40;7.60;;;;;;;;;;4976664;28;20047;-76
2022/12/25 10:42:58;;;;;;;8.15;7.55;;;;;;;;;;4973802;28;20482;-75
2022/12/25 10:45:23;;;;;;;8.20;7.70;;;;;;;;;;4970349;28;20042;-76
2022/12/25 10:47:49;;;;;;;8.50;7.80;;;;;;;;;;4965547;28;20042;-76
2022/12/25 10:50:23;;;;;;;7.65;7.05;;;;;;;;;;4949541;28;20557;-76
2022/12/25 10:53:04;;;;;;;7.20;6.72;;;;;;;;;;4969394;28;20109;-76
2022/12/25 10:55:30;;;;;;;7.45;6.95;;;;;;;;;;4978069;28;20050;-76
2022/12/25 10:57:57;;;;;;;7.90;7.38;;;;;;;;;;4975253;28;20043;-76
2022/12/25 11:00:28;;;;;;;7.10;6.60;;;;;;;;;;4971625;28;20050;-76
2022/12/25 11:02:54;;;;;;;7.68;6.97;;;;;;;;;;4977747;28;20152;-77
2022/12/25 11:05:32;;;;;;;8.10;7.50;;;;;;;;;;4974672;28;20822;-77
2022/12/25 11:08:02;;;;;;;7.65;7.15;;;;;;;;;;4979424;28;20142;-78
2022/12/25 11:10:37;;;;;;;7.65;7.05;;;;;;;;;;4970918;28;20042;-76
2022/12/25 11:13:15;;;;;;;7.60;7.00;;;;;;;;;;4989033;28;20042;-77
2022/12/25 11:15:47;;;;;;;14.48;11.02;;;;;;;;;;4992667;28;20416;-77
2022/12/25 11:18:25;;;;;;;8.50;7.60;;;;;;;;;;4978080;28;20039;-77
2022/12/25 11:21:02;;;;;;;8.98;8.18;;;;;;;;;;4971473;28;20735;-77
2022/12/25 11:23:30;;;;;;;21.40;14.57;;;;;;;;;;4974483;28;20058;-77
2022/12/25 11:26:00;;;;;;;35.67;20.40;;;;;;;;;;4989119;28;20092;-76
2022/12/25 11:28:29;;;;;;;8.55;7.85;;;;;;;;;;4973387;28;20062;-77
2022/12/25 11:30:59;;;;;;;7.93;7.32;;;;;;;;;;4967361;28;20097;-77
2022/12/25 11:33:31;;;;;;;8.10;7.45;;;;;;;;;;4994816;28;20030;-77
2022/12/25 11:35:59;;;;;;;7.72;7.03;;;;;;;;;;4968547;28;20117;-77
2022/12/25 11:38:27;;;;;;;8.77;7.30;;;;;;;;;;4969350;28;20058;-77
2022/12/25 11:40:59;;;;;;;8.95;8.07;;;;;;;;;;4974021;28;20034;-77
2022/12/25 11:43:34;;;;;;;9.43;8.63;;;;;;;;;;4953362;28;20041;-77
2022/12/25 11:46:13;;;;;;;14.50;11.07;;;;;;;;;;4975193;28;20634;-76
2022/12/25 11:49:08;;;;;;;;;;;;;;;;;;4978326;28;20093;-77
2022/12/25 11:51:39;;;;;;;9.30;8.45;;;;;;;;;;4969395;28;20016;-77
2022/12/25 11:54:26;;;;;;;7.82;7.32;;;;;;;;;;4969352;28;20042;-77
2022/12/25 11:56:52;;;;;;;27.42;17.77;;;;;;;;;;4973754;28;20124;-77
2022/12/25 11:59:30;;;;;;;18.50;13.23;;;;;;;;;;4973324;28;20688;-77
2022/12/25 12:02:19;;;;;;;9.15;8.38;;;;;;;;;;4963823;28;20034;-76
2022/12/25 12:04:49;;;;;;;10.35;9.43;;;;;;;;;;4965639;28;20401;-77
2022/12/25 12:07:40;;;;;;;28.05;20.58;;;;;;;;;;4971265;28;20049;-77
2022/12/25 12:10:16;;;;;;;9.38;8.07;;;;;;;;;;4997867;28;20041;-76
2022/12/25 12:13:01;;;;;;;8.68;7.88;;;;;;;;;;4989160;28;20086;-76
2022/12/25 12:15:47;;;;;;;9.07;8.27;;;;;;;;;;4990897;28;20034;-77
2022/12/25 12:18:24;;;;;;;11.60;9.48;;;;;;;;;;4995879;28;20165;-76
2022/12/25 12:21:19;;;;;;;10.32;9.38;;;;;;;;;;5003075;28;20061;-76
2022/12/25 12:23:55;;;;;;;10.82;9.73;;;;;;;;;;4976468;28;20078;-76
2022/12/25 12:26:24;;;;;;;9.98;9.18;;;;;;;;;;4989123;28;20517;-78
2022/12/25 12:28:53;;;;;;;9.23;8.52;;;;;;;;;;4986701;28;20702;-75
2022/12/25 12:31:20;;;;;;;10.40;9.50;;;;;;;;;;4983024;28;20072;-76
2022/12/25 12:33:49;;;;;;;10.45;9.45;;;;;;;;;;4991959;28;20039;-76
2022/12/25 12:36:15;;;;;;;9.45;8.75;;;;;;;;;;4952819;28;20043;-76
2022/12/25 12:38:42;;;;;;;9.48;8.68;;;;;;;;;;4979061;28;20054;-75
2022/12/25 12:41:11;;;;;;;10.40;9.35;;;;;;;;;;4993603;28;20069;-76
2022/12/25 12:43:59;;;;;;;11.10;10.07;;;;;;;;;;4980291;28;20049;-75
2022/12/25 12:46:29;;;;;;;11.10;9.48;;;;;;;;;;4983767;28;20037;-76
2022/12/25 12:49:09;;;;;;;11.38;10.48;;;;;;;;;;4987855;28;20035;-76
2022/12/25 12:51:38;;;;;;;11.80;10.77;;;;;;;;;;4977605;28;20027;-78
2022/12/25 12:54:21;;;;;;;11.35;9.20;;;;;;;;;;4977932;28;20027;-77
2022/12/25 12:57:05;;;;;;;9.80;8.98;;;;;;;;;;4988750;28;20046;-78
2022/12/25 12:59:38;;;;;;;10.48;8.40;;;;;;;;;;4999547;28;20062;-78
2022/12/25 13:02:16;;;;;;;9.25;8.43;;;;;;;;;;4966710;28;20085;-78
2022/12/25 13:04:59;;;;;;;9.65;8.95;;;;;;;;;;4969525;28;20417;-78
2022/12/25 13:07:43;;;;;;;9.68;8.77;;;;;;;;;;4972083;28;20034;-76
2022/12/25 13:10:22;;;;;;;9.90;9.10;;;;;;;;;;4980197;28;20042;-77
2022/12/25 13:12:54;;;;;;;9.32;8.60;;;;;;;;;;4966653;28;20038;-76
2022/12/25 13:15:23;;;;;;;9.63;8.65;;;;;;;;;;4971955;28;20030;-77
2022/12/25 13:17:49;;;;;;;;;;;;;;;;;;4974520;28;20034;-77
2022/12/25 13:20:39;;;;;;;12.63;11.07;;;;;;;;;;4966344;28;19920;-77
2022/12/25 13:23:24;;;;;;;10.98;9.98;;;;;;;;;;4971652;28;20045;-76
2022/12/25 13:26:00;;;;;;;11.45;10.15;;;;;;;;;;4956334;28;20066;-76
2022/12/25 13:28:32;;;;;;;9.82;8.93;;;;;;;;;;4965955;28;20041;-77
2022/12/25 13:31:05;;;;;;;9.38;8.68;;;;;;;;;;4968268;28;20090;-77
2022/12/25 13:33:32;;;;;;;10.18;9.23;;;;;;;;;;4970845;28;20096;-76
2022/12/25 13:35:58;;;;;;;10.18;9.27;;;;;;;;;;4966038;28;20035;-76
2022/12/25 13:38:26;;;;;;;10.13;9.15;;;;;;;;;;4969896;28;20049;-76
2022/12/25 13:43:44;;;;;;;10.82;9.77;;;;;;;;;;4972931;28;20410;-77
2022/12/25 13:46:14;;;;;;;9.63;8.73;;;;;;;;;;4970101;28;20033;-77
2022/12/25 13:48:58;;;;;;;12.07;10.52;;;;;;;;;;4977086;28;20035;-77
2022/12/25 13:51:30;;;;;;;8.50;7.80;;;;;;;;;;4971300;28;20084;-77
2022/12/25 13:54:12;;;;;;;16.75;11.38;;;;;;;;;;4989969;28;20035;-77
2022/12/25 13:57:14;;;;;;;22.50;14.13;;;;;;;;;;4969930;28;20042;-76
2022/12/25 13:59:49;;;;;;;12.65;9.07;;;;;;;;;;4996657;28;20034;-76
2022/12/25 14:02:33;;;;;;;26.85;15.23;;;;;;;;;;4996848;28;20023;-76
2022/12/25 14:05:03;;;;;;;18.15;12.73;;;;;;;;;;4977645;28;20042;-76
2022/12/25 14:07:29;;;;;;;32.47;18.17;;;;;;;;;;4981785;28;20101;-76
2022/12/25 14:10:02;;;;;;;29.67;17.00;;;;;;;;;;4971530;28;20030;-77
2022/12/25 14:12:30;;;;;;;10.60;8.00;;;;;;;;;;4993006;28;20035;-77
2022/12/25 14:14:57;;;;;;;9.10;8.30;;;;;;;;;;4975376;28;20565;-76
2022/12/25 14:17:23;;;;;;;8.27;7.55;;;;;;;;;;4974433;28;20034;-77
2022/12/25 14:19:57;;;;;;;10.02;9.00;;;;;;;;;;4975735;28;20425;-76
2022/12/25 14:22:24;;;;;;;12.02;9.48;;;;;;;;;;4981906;28;20073;-76
2022/12/25 14:24:50;;;;;;;10.48;9.52;;;;;;;;;;4988687;28;20125;-77
2022/12/25 14:27:25;;;;;;;13.70;9.65;;;;;;;;;;4969971;28;20106;-77
2022/12/25 14:29:53;;;;;;;11.40;10.30;;;;;;;;;;4974975;28;20045;-77
2022/12/25 14:32:23;;;;;;;10.18;9.27;;;;;;;;;;4974336;28;20035;-77
2022/12/25 14:35:02;;;;;;;16.27;10.60;;;;;;;;;;4976048;28;20049;-76
2022/12/25 14:37:30;;;;;;;54.72;31.90;;;;;;;;;;4978741;28;20106;-77
2022/12/25 14:39:58;;;;;;;14.05;10.52;;;;;;;;;;4975014;28;20105;-77
2022/12/25 14:42:28;;;;;;;21.13;16.20;;;;;;;;;;4976778;28;20489;-78
2022/12/25 14:45:06;;;;;;;;;;;;;;;;;;4978254;28;20121;-77
2022/12/25 14:47:38;;;;;;;15.10;12.43;;;;;;;;;;4975162;28;19936;-77
2022/12/25 14:50:24;;;;;;;10.50;9.50;;;;;;;;;;4977554;28;20057;-77
2022/12/25 14:52:49;;;;;;;10.65;9.55;;;;;;;;;;4973393;28;20034;-77
2022/12/25 14:55:24;;;;;;;17.33;12.93;;;;;;;;;;4978453;28;20099;-77
2022/12/25 14:57:54;;;;;;;31.73;18.42;;;;;;;;;;4977234;28;20042;-78
2022/12/25 15:00:24;;;;;;;17.50;12.02;;;;;;;;;;4980231;28;20077;-77
2022/12/25 15:02:53;;;;;;;26.85;16.42;;;;;;;;;;4970265;28;20027;-77
2022/12/25 15:05:32;;;;;;;11.23;9.15;;;;;;;;;;4977950;28;20491;-77
2022/12/25 15:08:17;;;;;;;;;;;;;;;;;;4958417;28;20528;-77
2022/12/25 15:10:43;;;;;;;14.02;12.23;;;;;;;;;;4967413;28;19937;-78
2022/12/25 15:13:09;;;;;;;29.10;19.52;;;;;;;;;;4977682;28;20545;-77
2022/12/25 15:15:34;;;;;;;21.42;15.18;;;;;;;;;;4975849;28;20034;-76
2022/12/25 15:18:02;;;;;;;16.00;14.32;;;;;;;;;;4977799;28;20046;-77
2022/12/25 15:20:30;;;;;;;15.63;13.98;;;;;;;;;;4980053;28;20309;-77
2022/12/25 15:22:59;;;;;;;18.60;13.55;;;;;;;;;;4991715;28;20092;-77
2022/12/25 15:25:25;;;;;;;21.95;15.73;;;;;;;;;;4977451;28;20036;-78
2022/12/25 15:27:51;;;;;;;22.70;15.23;;;;;;;;;;4977426;28;20413;-77
2022/12/25 15:30:17;;;;;;;19.45;13.70;;;;;;;;;;4968968;28;20039;-77
2022/12/25 15:32:43;;;;;;;14.25;12.75;;;;;;;;;;4980718;28;20505;-78
2022/12/25 15:35:18;;;;;;;15.68;12.82;;;;;;;;;;4980446;28;20346;-77
2022/12/25 15:37:44;;;;;;;12.15;10.85;;;;;;;;;;4974165;28;20089;-77
2022/12/25 15:40:16;;;;;;;10.40;9.40;;;;;;;;;;4976933;28;20121;-76
2022/12/25 15:42:42;;;;;;;10.75;9.65;;;;;;;;;;4973788;28;20031;-77
2022/12/25 15:45:20;;;;;;;10.52;9.45;;;;;;;;;;4980174;28;20038;-77
2022/12/25 15:47:46;;;;;;;10.75;9.77;;;;;;;;;;4967032;28;20041;-77
2022/12/25 15:50:12;;;;;;;10.40;9.50;;;;;;;;;;4974979;28;20038;-77
2022/12/25 15:52:37;;;;;;;10.35;9.45;;;;;;;;;;4982273;28;20093;-77
2022/12/25 15:55:03;;;;;;;12.70;11.38;;;;;;;;;;4971359;28;20062;-77
2022/12/25 15:57:29;;;;;;;10.32;9.32;;;;;;;;;;4966962;28;20091;-77
2022/12/25 15:59:55;;;;;;;9.73;8.80;;;;;;;;;;4977062;28;20030;-77
2022/12/25 16:02:20;;;;;;;10.43;9.32;;;;;;;;;;4982681;28;20074;-78
2022/12/25 16:04:47;;;;;;;8.63;7.82;;;;;;;;;;4982646;28;20038;-78
2022/12/25 16:07:21;;;;;;;9.88;8.93;;;;;;;;;;4977700;28;20034;-78
2022/12/25 16:09:48;;;;;;;9.88;8.98;;;;;;;;;;4980069;28;20402;-78
2022/12/25 16:12:14;;;;;;;8.50;7.90;;;;;;;;;;4981547;28;20033;-78
2022/12/25 16:14:40;;;;;;;8.77;7.97;;;;;;;;;;4974115;28;20043;-78
2022/12/25 16:17:06;;;;;;;9.48;8.68;;;;;;;;;;4961861;28;20119;-78
2022/12/25 16:19:32;;;;;;;10.73;9.38;;;;;;;;;;4975500;28;20034;-78
2022/12/25 16:21:58;;;;;;;9.95;9.15;;;;;;;;;;4974853;28;20107;-78
2022/12/25 16:24:24;;;;;;;13.55;11.48;;;;;;;;;;4976986;28;20483;-79
2022/12/25 16:26:50;;;;;;;12.05;10.85;;;;;;;;;;4976239;28;20105;-78
2022/12/25 16:29:16;;;;;;;15.75;14.07;;;;;;;;;;4977321;28;20051;-78
2022/12/25 16:31:42;;;;;;;14.65;13.15;;;;;;;;;;4983989;28;20548;-78
2022/12/25 16:34:08;;;;;;;11.60;10.38;;;;;;;;;;4983954;28;20448;-78